sensor_id;sensor_type;location;lat;lon;timestamp;temperature;humidity
12309;DHT22;6217;48.150;17.142;2024-03-02T00:04:05;11.80;94.60
12309;DHT22;6217;48.150;17.142;2024-03-02T00:08:19;11.80;94.50
12309;DHT22;6217;48.150;17.142;2024-03-02T00:12:29;11.70;94.50
12309;DHT22;6217;48.150;17.142;2024-03-02T00:16:35;11.70;94.70
12309;DHT22;6217;48.150;17.142;2024-03-02T00:20:41;11.70;94.80
12309;DHT22;6217;48.150;17.142;2024-03-02T00:24:47;11.70;94.60
12309;DHT22;6217;48.150;17.142;2024-03-02T00:28:55;11.70;94.50
12309;DHT22;6217;48.150;17.142;2024-03-02T00:33:06;11.70;94.60
12309;DHT22;6217;48.150;17.142;2024-03-02T00:37:14;11.80;94.70
12309;DHT22;6217;48.150;17.142;2024-03-02T00:41:30;11.90;94.60
12309;DHT22;6217;48.150;17.142;2024-03-02T00:45:39;11.90;94.40
12309;DHT22;6217;48.150;17.142;2024-03-02T00:49:46;11.90;94.50
12309;DHT22;6217;48.150;17.142;2024-03-02T00:53:54;11.80;94.30
12309;DHT22;6217;48.150;17.142;2024-03-02T00:58:02;11.70;94.40
12309;DHT22;6217;48.150;17.142;2024-03-02T01:02:08;11.70;94.40
12309;DHT22;6217;48.150;17.142;2024-03-02T01:06:13;11.70;94.70
12309;DHT22;6217;48.150;17.142;2024-03-02T01:10:20;11.80;94.60
12309;DHT22;6217;48.150;17.142;2024-03-02T01:14:26;11.70;94.70
12309;DHT22;6217;48.150;17.142;2024-03-02T01:18:32;11.70;94.40
12309;DHT22;6217;48.150;17.142;2024-03-02T01:22:37;11.70;94.40
12309;DHT22;6217;48.150;17.142;2024-03-02T01:26:43;11.70;94.40
12309;DHT22;6217;48.150;17.142;2024-03-02T01:30:49;11.60;94.50
12309;DHT22;6217;48.150;17.142;2024-03-02T01:34:55;11.50;94.70
12309;DHT22;6217;48.150;17.142;2024-03-02T01:39:01;11.60;94.60
12309;DHT22;6217;48.150;17.142;2024-03-02T01:43:08;11.60;94.60
12309;DHT22;6217;48.150;17.142;2024-03-02T01:47:14;11.60;94.60
12309;DHT22;6217;48.150;17.142;2024-03-02T01:51:20;11.70;94.60
12309;DHT22;6217;48.150;17.142;2024-03-02T01:55:26;11.70;94.60
12309;DHT22;6217;48.150;17.142;2024-03-02T01:59:34;11.80;94.40
12309;DHT22;6217;48.150;17.142;2024-03-02T02:03:40;11.80;94.30
12309;DHT22;6217;48.150;17.142;2024-03-02T02:07:46;11.80;94.20
12309;DHT22;6217;48.150;17.142;2024-03-02T02:11:52;11.70;94.30
12309;DHT22;6217;48.150;17.142;2024-03-02T02:16:06;11.80;94.30
12309;DHT22;6217;48.150;17.142;2024-03-02T02:20:15;11.70;94.40
12309;DHT22;6217;48.150;17.142;2024-03-02T02:24:21;11.60;94.40
12309;DHT22;6217;48.150;17.142;2024-03-02T02:28:27;11.60;94.40
12309;DHT22;6217;48.150;17.142;2024-03-02T02:32:32;11.50;94.40
12309;DHT22;6217;48.150;17.142;2024-03-02T02:36:39;11.50;94.50
12309;DHT22;6217;48.150;17.142;2024-03-02T02:40:45;11.30;94.40
12309;DHT22;6217;48.150;17.142;2024-03-02T02:44:51;11.20;94.50
12309;DHT22;6217;48.150;17.142;2024-03-02T02:48:57;11.20;94.70
12309;DHT22;6217;48.150;17.142;2024-03-02T02:53:03;11.20;94.70
12309;DHT22;6217;48.150;17.142;2024-03-02T02:57:09;11.20;94.60
12309;DHT22;6217;48.150;17.142;2024-03-02T03:01:16;11.10;94.70
12309;DHT22;6217;48.150;17.142;2024-03-02T03:05:24;11.10;94.60
12309;DHT22;6217;48.150;17.142;2024-03-02T03:09:30;11.10;94.70
12309;DHT22;6217;48.150;17.142;2024-03-02T03:13:36;11.10;94.90
12309;DHT22;6217;48.150;17.142;2024-03-02T03:17:42;11.20;95.00
12309;DHT22;6217;48.150;17.142;2024-03-02T03:21:48;11.10;94.90
12309;DHT22;6217;48.150;17.142;2024-03-02T03:25:54;11.00;94.90
12309;DHT22;6217;48.150;17.142;2024-03-02T03:30:00;11.00;94.90
12309;DHT22;6217;48.150;17.142;2024-03-02T03:34:06;11.00;95.00
12309;DHT22;6217;48.150;17.142;2024-03-02T03:38:12;11.00;95.20
12309;DHT22;6217;48.150;17.142;2024-03-02T03:42:18;10.90;95.10
12309;DHT22;6217;48.150;17.142;2024-03-02T03:46:24;10.80;95.20
12309;DHT22;6217;48.150;17.142;2024-03-02T03:50:30;10.80;95.40
12309;DHT22;6217;48.150;17.142;2024-03-02T03:54:35;10.90;95.30
12309;DHT22;6217;48.150;17.142;2024-03-02T03:58:43;11.00;95.30
12309;DHT22;6217;48.150;17.142;2024-03-02T04:02:49;11.00;95.20
12309;DHT22;6217;48.150;17.142;2024-03-02T04:06:55;10.90;95.30
12309;DHT22;6217;48.150;17.142;2024-03-02T04:11:02;11.00;95.30
12309;DHT22;6217;48.150;17.142;2024-03-02T04:15:08;11.00;95.30
12309;DHT22;6217;48.150;17.142;2024-03-02T04:19:14;11.00;95.20
12309;DHT22;6217;48.150;17.142;2024-03-02T04:23:20;11.00;95.10
12309;DHT22;6217;48.150;17.142;2024-03-02T04:27:26;11.00;95.10
12309;DHT22;6217;48.150;17.142;2024-03-02T04:31:32;10.90;95.00
12309;DHT22;6217;48.150;17.142;2024-03-02T04:35:38;11.00;95.20
12309;DHT22;6217;48.150;17.142;2024-03-02T04:39:44;11.00;95.00
12309;DHT22;6217;48.150;17.142;2024-03-02T04:43:50;11.00;94.90
12309;DHT22;6217;48.150;17.142;2024-03-02T04:47:56;11.00;95.00
12309;DHT22;6217;48.150;17.142;2024-03-02T04:52:02;11.10;94.90
12309;DHT22;6217;48.150;17.142;2024-03-02T04:56:08;11.00;94.80
12309;DHT22;6217;48.150;17.142;2024-03-02T05:00:45;11.00;95.00
12309;DHT22;6217;48.150;17.142;2024-03-02T05:04:54;10.90;94.80
12309;DHT22;6217;48.150;17.142;2024-03-02T05:09:02;10.90;95.00
12309;DHT22;6217;48.150;17.142;2024-03-02T05:13:08;10.90;95.00
12309;DHT22;6217;48.150;17.142;2024-03-02T05:17:14;10.80;95.00
12309;DHT22;6217;48.150;17.142;2024-03-02T05:21:21;10.80;95.00
12309;DHT22;6217;48.150;17.142;2024-03-02T05:25:30;10.70;95.30
12309;DHT22;6217;48.150;17.142;2024-03-02T05:29:37;10.70;95.00
12309;DHT22;6217;48.150;17.142;2024-03-02T05:33:44;10.70;95.10
12309;DHT22;6217;48.150;17.142;2024-03-02T05:37:51;10.70;95.10
12309;DHT22;6217;48.150;17.142;2024-03-02T05:41:57;10.70;95.10
12309;DHT22;6217;48.150;17.142;2024-03-02T05:46:03;10.70;95.10
12309;DHT22;6217;48.150;17.142;2024-03-02T05:50:09;10.70;95.10
12309;DHT22;6217;48.150;17.142;2024-03-02T05:54:16;10.80;95.10
12309;DHT22;6217;48.150;17.142;2024-03-02T05:58:22;10.80;95.00
12309;DHT22;6217;48.150;17.142;2024-03-02T06:02:48;10.70;94.90
12309;DHT22;6217;48.150;17.142;2024-03-02T06:06:54;10.70;94.90
12309;DHT22;6217;48.150;17.142;2024-03-02T06:11:02;10.70;95.00
12309;DHT22;6217;48.150;17.142;2024-03-02T06:15:08;10.70;95.10
12309;DHT22;6217;48.150;17.142;2024-03-02T06:19:16;10.80;95.20
12309;DHT22;6217;48.150;17.142;2024-03-02T06:23:23;10.80;95.20
12309;DHT22;6217;48.150;17.142;2024-03-02T06:27:29;10.90;95.10
12309;DHT22;6217;48.150;17.142;2024-03-02T06:31:36;11.00;95.10
12309;DHT22;6217;48.150;17.142;2024-03-02T06:35:43;11.00;95.00
12309;DHT22;6217;48.150;17.142;2024-03-02T06:39:48;11.10;95.10
12309;DHT22;6217;48.150;17.142;2024-03-02T06:43:54;11.30;95.00
12309;DHT22;6217;48.150;17.142;2024-03-02T06:48:05;11.40;94.80
12309;DHT22;6217;48.150;17.142;2024-03-02T06:52:11;11.40;94.80
12309;DHT22;6217;48.150;17.142;2024-03-02T06:56:17;11.50;94.70
12309;DHT22;6217;48.150;17.142;2024-03-02T07:00:23;11.60;94.50
12309;DHT22;6217;48.150;17.142;2024-03-02T07:04:29;11.70;94.50
12309;DHT22;6217;48.150;17.142;2024-03-02T07:08:35;11.80;94.40
12309;DHT22;6217;48.150;17.142;2024-03-02T07:12:41;11.80;94.10
12309;DHT22;6217;48.150;17.142;2024-03-02T07:16:47;11.80;94.00
12309;DHT22;6217;48.150;17.142;2024-03-02T07:20:53;11.80;93.80
12309;DHT22;6217;48.150;17.142;2024-03-02T07:24:59;11.70;93.80
12309;DHT22;6217;48.150;17.142;2024-03-02T07:29:05;11.50;93.70
12309;DHT22;6217;48.150;17.142;2024-03-02T07:33:11;11.40;93.80
12309;DHT22;6217;48.150;17.142;2024-03-02T07:37:17;11.30;93.90
12309;DHT22;6217;48.150;17.142;2024-03-02T07:41:24;11.40;93.90
12309;DHT22;6217;48.150;17.142;2024-03-02T07:45:30;11.40;94.00
12309;DHT22;6217;48.150;17.142;2024-03-02T07:49:35;11.50;93.80
12309;DHT22;6217;48.150;17.142;2024-03-02T07:53:41;11.50;93.80
12309;DHT22;6217;48.150;17.142;2024-03-02T07:57:47;11.60;93.80
12309;DHT22;6217;48.150;17.142;2024-03-02T08:01:53;11.60;93.80
12309;DHT22;6217;48.150;17.142;2024-03-02T08:06:00;11.70;93.70
12309;DHT22;6217;48.150;17.142;2024-03-02T08:10:07;11.80;93.50
12309;DHT22;6217;48.150;17.142;2024-03-02T08:14:13;11.70;93.40
12309;DHT22;6217;48.150;17.142;2024-03-02T08:18:19;11.70;93.40
12309;DHT22;6217;48.150;17.142;2024-03-02T08:22:25;12.00;93.50
12309;DHT22;6217;48.150;17.142;2024-03-02T08:26:31;12.30;93.20
12309;DHT22;6217;48.150;17.142;2024-03-02T08:30:37;12.60;92.80
12309;DHT22;6217;48.150;17.142;2024-03-02T08:34:43;12.70;92.50
12309;DHT22;6217;48.150;17.142;2024-03-02T08:38:50;12.80;92.30
12309;DHT22;6217;48.150;17.142;2024-03-02T08:42:56;12.80;92.00
12309;DHT22;6217;48.150;17.142;2024-03-02T08:47:02;12.80;92.00
12309;DHT22;6217;48.150;17.142;2024-03-02T08:51:08;12.90;92.00
12309;DHT22;6217;48.150;17.142;2024-03-02T08:55:15;13.10;91.60
12309;DHT22;6217;48.150;17.142;2024-03-02T08:59:21;13.10;91.60
12309;DHT22;6217;48.150;17.142;2024-03-02T09:03:27;13.20;91.40
12309;DHT22;6217;48.150;17.142;2024-03-02T09:07:33;13.20;91.20
12309;DHT22;6217;48.150;17.142;2024-03-02T09:11:39;13.30;90.90
12309;DHT22;6217;48.150;17.142;2024-03-02T09:15:45;13.30;90.60
12309;DHT22;6217;48.150;17.142;2024-03-02T09:19:51;13.40;90.50
12309;DHT22;6217;48.150;17.142;2024-03-02T09:23:58;13.50;90.00
12309;DHT22;6217;48.150;17.142;2024-03-02T09:28:04;13.80;90.20
12309;DHT22;6217;48.150;17.142;2024-03-02T09:32:13;13.80;89.30
12309;DHT22;6217;48.150;17.142;2024-03-02T09:36:21;14.10;89.80
12309;DHT22;6217;48.150;17.142;2024-03-02T09:40:27;14.30;88.40
12309;DHT22;6217;48.150;17.142;2024-03-02T09:44:34;14.30;87.40
12309;DHT22;6217;48.150;17.142;2024-03-02T09:48:40;13.90;87.20
12309;DHT22;6217;48.150;17.142;2024-03-02T09:52:49;13.70;87.80
12309;DHT22;6217;48.150;17.142;2024-03-02T09:56:56;13.60;88.10
12309;DHT22;6217;48.150;17.142;2024-03-02T10:01:04;13.50;88.40
12309;DHT22;6217;48.150;17.142;2024-03-02T10:05:11;13.50;88.80
12309;DHT22;6217;48.150;17.142;2024-03-02T10:09:27;13.50;88.60
12309;DHT22;6217;48.150;17.142;2024-03-02T10:13:36;13.40;89.10
12309;DHT22;6217;48.150;17.142;2024-03-02T10:17:42;13.50;88.60
12309;DHT22;6217;48.150;17.142;2024-03-02T10:21:52;13.50;88.60
12309;DHT22;6217;48.150;17.142;2024-03-02T10:25:59;13.50;88.50
12309;DHT22;6217;48.150;17.142;2024-03-02T10:30:05;13.50;88.70
12309;DHT22;6217;48.150;17.142;2024-03-02T10:34:13;13.40;88.70
12309;DHT22;6217;48.150;17.142;2024-03-02T10:38:21;13.30;89.00
12309;DHT22;6217;48.150;17.142;2024-03-02T10:42:27;13.30;89.00
12309;DHT22;6217;48.150;17.142;2024-03-02T10:46:35;13.30;88.70
12309;DHT22;6217;48.150;17.142;2024-03-02T10:50:42;13.10;88.80
12309;DHT22;6217;48.150;17.142;2024-03-02T10:54:47;13.00;89.30
12309;DHT22;6217;48.150;17.142;2024-03-02T11:03:20;13.00;89.70
12309;DHT22;6217;48.150;17.142;2024-03-02T11:07:27;12.90;89.50
12309;DHT22;6217;48.150;17.142;2024-03-02T11:11:43;12.80;89.60
12309;DHT22;6217;48.150;17.142;2024-03-02T11:15:52;12.70;90.10
12309;DHT22;6217;48.150;17.142;2024-03-02T11:20:03;12.70;90.10
12309;DHT22;6217;48.150;17.142;2024-03-02T11:28:38;12.50;90.40
12309;DHT22;6217;48.150;17.142;2024-03-02T11:32:55;12.40;90.60
12309;DHT22;6217;48.150;17.142;2024-03-02T11:37:02;12.40;90.90
12309;DHT22;6217;48.150;17.142;2024-03-02T11:41:08;12.40;91.00
12309;DHT22;6217;48.150;17.142;2024-03-02T11:45:17;12.40;91.20
12309;DHT22;6217;48.150;17.142;2024-03-02T11:49:46;12.50;91.20
12309;DHT22;6217;48.150;17.142;2024-03-02T11:53:56;12.50;91.10
12309;DHT22;6217;48.150;17.142;2024-03-02T11:58:05;12.50;91.20
12309;DHT22;6217;48.150;17.142;2024-03-02T12:02:19;12.40;91.20
12309;DHT22;6217;48.150;17.142;2024-03-02T12:06:26;12.40;91.30
12309;DHT22;6217;48.150;17.142;2024-03-02T12:10:33;12.20;91.40
12309;DHT22;6217;48.150;17.142;2024-03-02T12:14:39;12.10;91.60
12309;DHT22;6217;48.150;17.142;2024-03-02T12:18:45;12.10;91.90
12309;DHT22;6217;48.150;17.142;2024-03-02T12:22:55;12.30;91.90
12309;DHT22;6217;48.150;17.142;2024-03-02T12:27:01;12.30;91.80
12309;DHT22;6217;48.150;17.142;2024-03-02T12:31:08;12.30;91.90
12309;DHT22;6217;48.150;17.142;2024-03-02T12:35:14;12.40;91.80
12309;DHT22;6217;48.150;17.142;2024-03-02T12:39:20;12.40;91.80
12309;DHT22;6217;48.150;17.142;2024-03-02T12:43:31;12.50;91.80
12309;DHT22;6217;48.150;17.142;2024-03-02T12:47:40;12.60;91.70
12309;DHT22;6217;48.150;17.142;2024-03-02T12:51:46;12.60;91.60
12309;DHT22;6217;48.150;17.142;2024-03-02T12:55:57;12.60;91.60
12309;DHT22;6217;48.150;17.142;2024-03-02T13:00:05;12.50;91.70
12309;DHT22;6217;48.150;17.142;2024-03-02T13:04:15;12.60;91.90
12309;DHT22;6217;48.150;17.142;2024-03-02T13:08:21;12.60;91.80
12309;DHT22;6217;48.150;17.142;2024-03-02T13:12:27;12.60;91.80
12309;DHT22;6217;48.150;17.142;2024-03-02T13:16:38;12.50;91.80
12309;DHT22;6217;48.150;17.142;2024-03-02T13:20:45;12.50;91.90
12309;DHT22;6217;48.150;17.142;2024-03-02T13:24:52;12.50;91.90
12309;DHT22;6217;48.150;17.142;2024-03-02T13:29:00;12.50;91.80
12309;DHT22;6217;48.150;17.142;2024-03-02T13:33:05;12.40;91.80
12309;DHT22;6217;48.150;17.142;2024-03-02T13:37:11;12.50;92.00
12309;DHT22;6217;48.150;17.142;2024-03-02T13:41:17;12.60;91.90
12309;DHT22;6217;48.150;17.142;2024-03-02T13:45:23;12.50;91.80
12309;DHT22;6217;48.150;17.142;2024-03-02T13:49:29;12.50;91.90
12309;DHT22;6217;48.150;17.142;2024-03-02T13:53:49;12.50;92.00
12309;DHT22;6217;48.150;17.142;2024-03-02T13:57:55;12.50;92.00
12309;DHT22;6217;48.150;17.142;2024-03-02T14:02:02;12.60;91.90
12309;DHT22;6217;48.150;17.142;2024-03-02T14:06:11;12.50;91.90
12309;DHT22;6217;48.150;17.142;2024-03-02T14:10:17;12.50;92.00
12309;DHT22;6217;48.150;17.142;2024-03-02T14:14:27;12.50;92.00
12309;DHT22;6217;48.150;17.142;2024-03-02T14:18:33;12.40;92.10
12309;DHT22;6217;48.150;17.142;2024-03-02T14:22:39;12.40;92.20
12309;DHT22;6217;48.150;17.142;2024-03-02T14:26:45;12.30;92.30
12309;DHT22;6217;48.150;17.142;2024-03-02T14:30:51;12.20;92.50
12309;DHT22;6217;48.150;17.142;2024-03-02T14:34:57;12.20;92.60
12309;DHT22;6217;48.150;17.142;2024-03-02T14:39:03;12.20;92.70
12309;DHT22;6217;48.150;17.142;2024-03-02T14:43:09;12.10;92.80
12309;DHT22;6217;48.150;17.142;2024-03-02T14:47:15;12.10;93.00
12309;DHT22;6217;48.150;17.142;2024-03-02T14:51:21;12.10;93.00
12309;DHT22;6217;48.150;17.142;2024-03-02T14:55:27;12.10;93.00
12309;DHT22;6217;48.150;17.142;2024-03-02T14:59:33;12.10;93.10
12309;DHT22;6217;48.150;17.142;2024-03-02T15:03:40;12.10;93.20
12309;DHT22;6217;48.150;17.142;2024-03-02T15:07:46;12.10;93.30
12309;DHT22;6217;48.150;17.142;2024-03-02T15:11:52;12.10;93.30
12309;DHT22;6217;48.150;17.142;2024-03-02T15:15:58;12.10;93.40
12309;DHT22;6217;48.150;17.142;2024-03-02T15:20:07;12.10;93.40
12309;DHT22;6217;48.150;17.142;2024-03-02T15:24:13;12.00;93.50
12309;DHT22;6217;48.150;17.142;2024-03-02T15:28:22;12.00;93.70
12309;DHT22;6217;48.150;17.142;2024-03-02T15:32:28;12.10;93.60
12309;DHT22;6217;48.150;17.142;2024-03-02T15:36:34;12.20;93.60
12309;DHT22;6217;48.150;17.142;2024-03-02T15:40:40;12.10;93.50
12309;DHT22;6217;48.150;17.142;2024-03-02T15:44:46;12.00;93.60
12309;DHT22;6217;48.150;17.142;2024-03-02T15:48:52;11.90;93.80
12309;DHT22;6217;48.150;17.142;2024-03-02T15:52:58;11.90;93.90
12309;DHT22;6217;48.150;17.142;2024-03-02T15:57:08;12.00;94.00
12309;DHT22;6217;48.150;17.142;2024-03-02T16:01:14;12.00;93.90
12309;DHT22;6217;48.150;17.142;2024-03-02T16:05:20;12.10;93.80
12309;DHT22;6217;48.150;17.142;2024-03-02T16:09:26;12.00;93.80
12309;DHT22;6217;48.150;17.142;2024-03-02T16:13:32;11.90;93.90
12309;DHT22;6217;48.150;17.142;2024-03-02T16:17:38;11.90;94.00
12309;DHT22;6217;48.150;17.142;2024-03-02T16:21:46;11.90;94.00
12309;DHT22;6217;48.150;17.142;2024-03-02T16:25:52;11.90;94.20
12309;DHT22;6217;48.150;17.142;2024-03-02T16:29:59;11.90;94.20
12309;DHT22;6217;48.150;17.142;2024-03-02T16:34:05;11.80;94.30
12309;DHT22;6217;48.150;17.142;2024-03-02T16:38:11;11.80;94.40
12309;DHT22;6217;48.150;17.142;2024-03-02T16:42:18;11.90;94.30
12309;DHT22;6217;48.150;17.142;2024-03-02T16:46:25;11.90;94.40
12309;DHT22;6217;48.150;17.142;2024-03-02T16:50:31;11.90;94.40
12309;DHT22;6217;48.150;17.142;2024-03-02T16:54:37;11.90;94.40
12309;DHT22;6217;48.150;17.142;2024-03-02T16:58:43;11.90;94.40
12309;DHT22;6217;48.150;17.142;2024-03-02T17:02:49;11.90;94.40
12309;DHT22;6217;48.150;17.142;2024-03-02T17:06:55;11.90;94.50
12309;DHT22;6217;48.150;17.142;2024-03-02T17:11:01;11.80;94.50
12309;DHT22;6217;48.150;17.142;2024-03-02T17:15:09;11.80;94.60
12309;DHT22;6217;48.150;17.142;2024-03-02T17:19:15;11.90;94.70
12309;DHT22;6217;48.150;17.142;2024-03-02T17:23:21;12.00;94.50
12309;DHT22;6217;48.150;17.142;2024-03-02T17:27:27;11.90;94.50
12309;DHT22;6217;48.150;17.142;2024-03-02T17:31:36;11.80;94.70
12309;DHT22;6217;48.150;17.142;2024-03-02T17:35:42;11.80;94.80
12309;DHT22;6217;48.150;17.142;2024-03-02T17:39:51;11.80;94.70
12309;DHT22;6217;48.150;17.142;2024-03-02T17:43:57;11.80;94.80
12309;DHT22;6217;48.150;17.142;2024-03-02T17:48:03;11.80;94.90
12309;DHT22;6217;48.150;17.142;2024-03-02T17:52:09;11.80;95.00
12309;DHT22;6217;48.150;17.142;2024-03-02T17:56:15;11.80;94.90
12309;DHT22;6217;48.150;17.142;2024-03-02T18:00:21;11.70;95.00
12309;DHT22;6217;48.150;17.142;2024-03-02T18:04:27;11.70;95.10
12309;DHT22;6217;48.150;17.142;2024-03-02T18:08:34;11.60;95.20
12309;DHT22;6217;48.150;17.142;2024-03-02T18:12:40;11.60;95.30
12309;DHT22;6217;48.150;17.142;2024-03-02T18:16:46;11.60;95.30
12309;DHT22;6217;48.150;17.142;2024-03-02T18:20:52;11.60;95.50
12309;DHT22;6217;48.150;17.142;2024-03-02T18:24:58;11.60;95.40
12309;DHT22;6217;48.150;17.142;2024-03-02T18:29:05;11.70;95.70
12309;DHT22;6217;48.150;17.142;2024-03-02T18:33:14;11.70;95.50
12309;DHT22;6217;48.150;17.142;2024-03-02T18:37:29;11.60;95.50
12309;DHT22;6217;48.150;17.142;2024-03-02T18:41:38;11.60;95.50
12309;DHT22;6217;48.150;17.142;2024-03-02T18:45:44;11.60;95.70
12309;DHT22;6217;48.150;17.142;2024-03-02T18:49:50;11.60;95.60
12309;DHT22;6217;48.150;17.142;2024-03-02T18:54:00;11.40;95.60
12309;DHT22;6217;48.150;17.142;2024-03-02T18:58:09;11.40;95.80
12309;DHT22;6217;48.150;17.142;2024-03-02T19:02:15;11.40;95.90
12309;DHT22;6217;48.150;17.142;2024-03-02T19:06:21;11.30;96.30
12309;DHT22;6217;48.150;17.142;2024-03-02T19:10:27;11.40;96.00
12309;DHT22;6217;48.150;17.142;2024-03-02T19:14:33;11.40;95.90
12309;DHT22;6217;48.150;17.142;2024-03-02T19:18:45;11.40;96.00
12309;DHT22;6217;48.150;17.142;2024-03-02T19:22:51;11.40;96.00
12309;DHT22;6217;48.150;17.142;2024-03-02T19:26:57;11.40;95.90
12309;DHT22;6217;48.150;17.142;2024-03-02T19:31:03;11.40;95.90
12309;DHT22;6217;48.150;17.142;2024-03-02T19:35:09;11.40;96.00
12309;DHT22;6217;48.150;17.142;2024-03-02T19:39:18;11.40;96.00
12309;DHT22;6217;48.150;17.142;2024-03-02T19:43:40;11.40;96.00
12309;DHT22;6217;48.150;17.142;2024-03-02T19:47:46;11.50;96.00
12309;DHT22;6217;48.150;17.142;2024-03-02T19:51:52;11.50;96.00
12309;DHT22;6217;48.150;17.142;2024-03-02T19:55:58;11.50;95.90
12309;DHT22;6217;48.150;17.142;2024-03-02T20:00:05;11.40;95.90
12309;DHT22;6217;48.150;17.142;2024-03-02T20:04:12;11.40;95.90
12309;DHT22;6217;48.150;17.142;2024-03-02T20:08:18;11.30;95.80
12309;DHT22;6217;48.150;17.142;2024-03-02T20:12:25;11.30;96.00
12309;DHT22;6217;48.150;17.142;2024-03-02T20:16:33;11.30;95.90
12309;DHT22;6217;48.150;17.142;2024-03-02T20:20:39;11.30;95.80
12309;DHT22;6217;48.150;17.142;2024-03-02T20:24:45;11.20;95.80
12309;DHT22;6217;48.150;17.142;2024-03-02T20:28:51;11.00;95.70
12309;DHT22;6217;48.150;17.142;2024-03-02T20:32:58;11.00;96.00
12309;DHT22;6217;48.150;17.142;2024-03-02T20:37:04;10.90;96.10
12309;DHT22;6217;48.150;17.142;2024-03-02T20:41:20;11.00;96.00
12309;DHT22;6217;48.150;17.142;2024-03-02T20:45:25;10.90;95.90
12309;DHT22;6217;48.150;17.142;2024-03-02T20:49:31;10.80;95.90
12309;DHT22;6217;48.150;17.142;2024-03-02T20:53:37;10.80;95.90
12309;DHT22;6217;48.150;17.142;2024-03-02T20:57:43;10.80;96.00
12309;DHT22;6217;48.150;17.142;2024-03-02T21:01:49;10.80;95.90
12309;DHT22;6217;48.150;17.142;2024-03-02T21:05:56;10.70;96.00
12309;DHT22;6217;48.150;17.142;2024-03-02T21:10:02;10.70;95.90
12309;DHT22;6217;48.150;17.142;2024-03-02T21:14:10;10.70;96.00
12309;DHT22;6217;48.150;17.142;2024-03-02T21:18:16;10.60;96.00
12309;DHT22;6217;48.150;17.142;2024-03-02T21:22:22;10.60;96.20
12309;DHT22;6217;48.150;17.142;2024-03-02T21:26:28;10.50;96.20
12309;DHT22;6217;48.150;17.142;2024-03-02T21:30:35;10.60;96.30
12309;DHT22;6217;48.150;17.142;2024-03-02T21:34:41;10.60;96.20
12309;DHT22;6217;48.150;17.142;2024-03-02T21:38:47;10.60;96.20
12309;DHT22;6217;48.150;17.142;2024-03-02T21:42:55;10.50;96.20
12309;DHT22;6217;48.150;17.142;2024-03-02T21:47:02;10.60;96.20
12309;DHT22;6217;48.150;17.142;2024-03-02T21:51:08;10.60;96.10
12309;DHT22;6217;48.150;17.142;2024-03-02T21:55:21;10.60;96.10
12309;DHT22;6217;48.150;17.142;2024-03-02T21:59:27;10.70;96.10
12309;DHT22;6217;48.150;17.142;2024-03-02T22:03:33;10.70;96.00
12309;DHT22;6217;48.150;17.142;2024-03-02T22:07:39;10.70;96.00
12309;DHT22;6217;48.150;17.142;2024-03-02T22:11:45;10.70;95.70
12309;DHT22;6217;48.150;17.142;2024-03-02T22:15:51;10.60;95.80
12309;DHT22;6217;48.150;17.142;2024-03-02T22:19:57;10.60;96.10
12309;DHT22;6217;48.150;17.142;2024-03-02T22:24:03;10.70;96.10
12309;DHT22;6217;48.150;17.142;2024-03-02T22:28:09;10.80;95.80
12309;DHT22;6217;48.150;17.142;2024-03-02T22:32:15;10.70;96.10
12309;DHT22;6217;48.150;17.142;2024-03-02T22:36:22;10.70;95.80
12309;DHT22;6217;48.150;17.142;2024-03-02T22:40:28;10.60;95.70
12309;DHT22;6217;48.150;17.142;2024-03-02T22:44:34;10.60;95.80
12309;DHT22;6217;48.150;17.142;2024-03-02T22:48:43;10.60;95.80
12309;DHT22;6217;48.150;17.142;2024-03-02T22:52:49;10.60;95.80
12309;DHT22;6217;48.150;17.142;2024-03-02T22:56:55;10.60;95.80
12309;DHT22;6217;48.150;17.142;2024-03-02T23:01:02;10.60;95.70
12309;DHT22;6217;48.150;17.142;2024-03-02T23:05:14;10.60;95.80
12309;DHT22;6217;48.150;17.142;2024-03-02T23:09:20;10.60;95.90
12309;DHT22;6217;48.150;17.142;2024-03-02T23:13:26;10.60;95.60
12309;DHT22;6217;48.150;17.142;2024-03-02T23:17:32;10.50;95.70
12309;DHT22;6217;48.150;17.142;2024-03-02T23:21:39;10.50;95.90
12309;DHT22;6217;48.150;17.142;2024-03-02T23:25:45;10.50;95.80
12309;DHT22;6217;48.150;17.142;2024-03-02T23:29:52;10.40;95.90
12309;DHT22;6217;48.150;17.142;2024-03-02T23:33:58;10.40;95.90
12309;DHT22;6217;48.150;17.142;2024-03-02T23:38:05;10.40;95.80
12309;DHT22;6217;48.150;17.142;2024-03-02T23:42:11;10.40;95.80
12309;DHT22;6217;48.150;17.142;2024-03-02T23:46:17;10.40;95.90
12309;DHT22;6217;48.150;17.142;2024-03-02T23:50:23;10.40;96.00
12309;DHT22;6217;48.150;17.142;2024-03-02T23:54:29;10.40;95.90
12309;DHT22;6217;48.150;17.142;2024-03-02T23:58:35;10.50;95.90
